createdAt,value
2023-04-08T00:02:03.889Z,17.95
2023-04-08T00:04:30.432Z,17.94
2023-04-08T00:06:56.992Z,17.94
2023-04-08T00:09:26.558Z,17.94
2023-04-08T00:11:52.993Z,17.92
2023-04-08T00:14:20.751Z,17.92
2023-04-08T00:16:47.229Z,17.91
2023-04-08T00:19:13.832Z,17.91
2023-04-08T00:21:42.913Z,17.89
2023-04-08T00:24:09.514Z,17.89
2023-04-08T00:26:37.697Z,17.88
2023-04-08T00:29:04.276Z,17.88
2023-04-08T00:31:44.831Z,17.88
2023-04-08T00:34:11.474Z,17.88
2023-04-08T00:36:41.409Z,17.86
2023-04-08T00:39:07.976Z,17.86
2023-04-08T00:41:35.799Z,17.86
2023-04-08T00:44:03.537Z,17.84
2023-04-08T00:46:29.999Z,17.84
2023-04-08T00:48:56.492Z,17.83
2023-04-08T00:51:23.066Z,17.83
2023-04-08T00:53:52.513Z,17.83
2023-04-08T00:56:19.229Z,17.82
2023-04-08T00:58:45.641Z,17.81
2023-04-08T01:01:12.099Z,17.81
2023-04-08T01:03:41.237Z,17.80
2023-04-08T01:06:11.410Z,17.80
2023-04-08T01:08:37.907Z,17.79
2023-04-08T01:11:06.290Z,17.78
2023-04-08T01:13:32.831Z,17.79
2023-04-08T01:15:59.421Z,17.77
2023-04-08T01:18:28.848Z,17.77
2023-04-08T01:20:55.377Z,17.77
2023-04-08T01:23:21.847Z,17.77
2023-04-08T01:25:48.275Z,17.75
2023-04-08T01:28:18.527Z,17.76
2023-04-08T01:30:46.315Z,17.76
2023-04-08T01:33:13.006Z,17.75
2023-04-08T01:35:39.666Z,17.75
2023-04-08T01:38:06.012Z,17.75
2023-04-08T01:40:32.480Z,17.75
2023-04-08T01:43:01.287Z,17.74
2023-04-08T01:45:28.134Z,17.72
2023-04-08T01:47:57.944Z,17.73
2023-04-08T01:50:24.452Z,17.72
2023-04-08T01:52:50.888Z,17.73
2023-04-08T01:55:17.451Z,17.72
2023-04-08T01:57:44.001Z,17.71
2023-04-08T02:00:13.636Z,17.70
2023-04-08T02:02:43.894Z,17.70
2023-04-08T02:05:10.608Z,17.70
2023-04-08T02:07:47.288Z,17.70
2023-04-08T02:10:13.896Z,17.70
2023-04-08T02:12:40.367Z,17.69
2023-04-08T02:15:08.148Z,17.69
2023-04-08T02:17:35.829Z,17.69
2023-04-08T02:20:03.479Z,17.68
2023-04-08T02:22:33.080Z,17.67
2023-04-08T02:25:02.392Z,17.66
2023-04-08T02:27:28.941Z,17.66
2023-04-08T02:29:57.333Z,17.66
2023-04-08T02:32:23.850Z,17.65
2023-04-08T02:34:50.293Z,17.64
2023-04-08T02:37:16.777Z,17.65
2023-04-08T02:39:43.282Z,17.63
2023-04-08T02:42:11.724Z,17.63
2023-04-08T02:44:38.384Z,17.62
2023-04-08T02:47:06.366Z,17.62
2023-04-08T02:49:34.232Z,17.61
2023-04-08T02:52:00.979Z,17.60
2023-04-08T02:54:28.926Z,17.61
2023-04-08T02:56:58.426Z,17.60
2023-04-08T02:59:26.196Z,17.59
2023-04-08T03:01:52.843Z,17.58
2023-04-08T03:04:19.399Z,17.58
2023-04-08T03:06:45.814Z,17.58
2023-04-08T03:09:13.372Z,17.58
2023-04-08T03:11:40.586Z,17.56
2023-04-08T03:14:07.454Z,17.56
2023-04-08T03:16:37.425Z,17.55
2023-04-08T03:19:07.098Z,17.55
2023-04-08T03:21:33.585Z,17.55
2023-04-08T03:24:00.115Z,17.55
2023-04-08T03:26:26.808Z,17.55
2023-04-08T03:28:53.278Z,17.54
2023-04-08T03:31:20.001Z,17.53
2023-04-08T03:33:47.843Z,17.53
2023-04-08T03:36:14.476Z,17.52
2023-04-08T03:38:43.831Z,17.53
2023-04-08T03:41:10.500Z,17.52
2023-04-08T03:43:38.013Z,17.51
2023-04-08T03:46:04.939Z,17.51
2023-04-08T03:48:31.965Z,17.49
2023-04-08T03:50:58.322Z,17.49
2023-04-08T03:53:25.032Z,17.48
2023-04-08T03:55:51.514Z,17.47
2023-04-08T03:58:18.149Z,17.47
2023-04-08T04:00:44.665Z,17.47
2023-04-08T04:03:15.474Z,17.46
2023-04-08T04:05:42.524Z,17.46
2023-04-08T04:08:09.003Z,17.46
2023-04-08T04:10:35.894Z,17.45
2023-04-08T04:13:02.295Z,17.44
2023-04-08T04:15:28.821Z,17.44
2023-04-08T04:17:56.745Z,17.44
2023-04-08T04:20:23.452Z,17.43
2023-04-08T04:22:49.837Z,17.43
2023-04-08T04:25:16.540Z,17.42
2023-04-08T04:27:42.989Z,17.42
2023-04-08T04:30:09.666Z,17.41
2023-04-08T04:32:36.227Z,17.41
2023-04-08T04:35:02.742Z,17.41
2023-04-08T04:37:32.196Z,17.40
2023-04-08T04:40:00.986Z,17.40
2023-04-08T04:42:27.390Z,17.40
2023-04-08T04:44:53.781Z,17.39
2023-04-08T04:47:20.499Z,17.40
2023-04-08T04:49:47.115Z,17.39
2023-04-08T04:52:13.623Z,17.41
2023-04-08T04:54:40.088Z,17.41
2023-04-08T04:57:06.677Z,17.42
2023-04-08T04:59:33.300Z,17.42
2023-04-08T05:02:00.782Z,17.42
2023-04-08T05:04:27.353Z,17.42
2023-04-08T05:06:56.143Z,17.43
2023-04-08T05:09:22.713Z,17.43
2023-04-08T05:11:50.663Z,17.44
2023-04-08T05:14:17.453Z,17.44
2023-04-08T05:16:43.882Z,17.43
2023-04-08T05:19:10.494Z,17.45
2023-04-08T05:21:37.186Z,17.45
2023-04-08T05:24:04.819Z,17.46
2023-04-08T05:26:34.287Z,17.47
2023-04-08T05:29:00.652Z,17.47
2023-04-08T05:31:27.162Z,17.46
2023-04-08T05:33:53.841Z,17.48
2023-04-08T05:36:20.237Z,17.48
2023-04-08T05:38:46.677Z,17.49
2023-04-08T05:41:13.191Z,17.49
2023-04-08T05:43:39.728Z,17.49
2023-04-08T05:46:09.149Z,17.51
2023-04-08T05:48:35.779Z,17.51
2023-04-08T05:51:03.382Z,17.50
2023-04-08T05:53:31.827Z,17.49
2023-04-08T05:55:58.356Z,17.49
2023-04-08T05:58:24.902Z,17.49
2023-04-08T06:00:51.403Z,17.48
2023-04-08T06:03:20.479Z,17.47
2023-04-08T06:05:47.421Z,17.47
2023-04-08T06:08:13.671Z,17.46
2023-04-08T06:10:39.917Z,17.45
2023-04-08T06:13:06.133Z,17.45
2023-04-08T06:15:32.361Z,17.46
2023-04-08T06:17:58.676Z,17.46
2023-04-08T06:20:25.210Z,17.45
2023-04-08T06:22:51.430Z,17.45
2023-04-08T06:25:17.608Z,17.46
2023-04-08T06:27:43.807Z,17.45
2023-04-08T06:30:10.086Z,17.46
2023-04-08T06:32:36.428Z,17.45
2023-04-08T06:35:02.671Z,17.45
2023-04-08T06:37:29.324Z,17.44
2023-04-08T06:39:55.532Z,17.46
2023-04-08T06:42:23.007Z,17.45
2023-04-08T06:44:49.533Z,17.45
2023-04-08T06:47:15.734Z,17.46
2023-04-08T06:49:42.422Z,17.47
2023-04-08T06:52:13.044Z,17.48
2023-04-08T06:54:40.720Z,17.48
2023-04-08T06:57:07.140Z,17.51
2023-04-08T06:59:37.060Z,17.51
2023-04-08T07:02:03.970Z,17.53
2023-04-08T07:04:30.623Z,17.53
2023-04-08T07:06:58.264Z,17.53
2023-04-08T07:09:24.992Z,17.54
2023-04-08T07:11:51.511Z,17.56
2023-04-08T07:14:17.863Z,17.56
2023-04-08T07:16:44.376Z,17.58
2023-04-08T07:19:10.876Z,17.58
2023-04-08T07:21:38.710Z,17.60
2023-04-08T07:24:05.350Z,17.59
2023-04-08T07:26:31.785Z,17.59
2023-04-08T07:29:02.662Z,17.59
2023-04-08T07:31:28.911Z,17.61
2023-04-08T07:33:55.671Z,17.60
2023-04-08T07:36:22.023Z,17.59
2023-04-08T07:38:48.387Z,17.59
2023-04-08T07:41:14.834Z,17.61
2023-04-08T07:43:41.272Z,17.59
2023-04-08T07:46:07.554Z,17.61
2023-04-08T07:48:33.870Z,17.62
2023-04-08T07:51:08.767Z,17.62
2023-04-08T07:53:36.755Z,17.61
2023-04-08T07:56:03.116Z,17.62
2023-04-08T07:58:29.559Z,17.61
2023-04-08T08:00:56.078Z,17.61
2023-04-08T08:03:22.670Z,17.61
2023-04-08T08:05:48.966Z,17.61
2023-04-08T08:08:15.388Z,17.61
2023-04-08T08:10:41.605Z,17.62
2023-04-08T08:13:07.793Z,17.62
2023-04-08T08:15:34.126Z,17.63
2023-04-08T08:18:00.647Z,17.64
2023-04-08T08:20:26.886Z,17.64
2023-04-08T08:22:57.176Z,17.64
2023-04-08T08:25:25.946Z,17.64
2023-04-08T08:27:52.590Z,17.65
2023-04-08T08:30:18.956Z,17.65
2023-04-08T08:32:45.489Z,17.65
2023-04-08T08:35:12.711Z,17.66
2023-04-08T08:37:41.128Z,17.67
2023-04-08T08:40:07.353Z,17.66
2023-04-08T08:42:34.466Z,17.68
2023-04-08T08:45:00.783Z,17.68
2023-04-08T08:47:27.282Z,17.70
2023-04-08T08:49:53.628Z,17.72
2023-04-08T08:52:19.960Z,17.73
2023-04-08T08:54:46.198Z,17.74
2023-04-08T08:57:12.389Z,17.76
2023-04-08T08:59:38.755Z,17.76
2023-04-08T09:02:04.988Z,17.78
2023-04-08T09:04:31.511Z,17.78
2023-04-08T09:07:01.888Z,17.79
2023-04-08T09:09:28.198Z,17.83
2023-04-08T09:11:54.455Z,17.85
2023-04-08T09:14:20.718Z,17.87
2023-04-08T09:16:47.480Z,17.87
2023-04-08T09:19:14.290Z,17.89
2023-04-08T09:21:41.187Z,17.90
2023-04-08T09:24:07.491Z,17.77
2023-04-08T09:26:33.742Z,17.92
2023-04-08T09:29:02.464Z,17.94
2023-04-08T09:31:34.790Z,17.93
2023-04-08T09:34:01.019Z,17.93
2023-04-08T09:36:27.206Z,17.93
2023-04-08T09:38:53.431Z,17.93
2023-04-08T09:41:19.849Z,17.93
2023-04-08T09:43:46.074Z,17.92
2023-04-08T09:46:12.337Z,17.93
2023-04-08T09:48:38.607Z,17.92
2023-04-08T09:51:04.813Z,17.92
2023-04-08T09:53:31.100Z,17.94
2023-04-08T09:55:57.417Z,17.94
2023-04-08T09:58:23.846Z,17.94
2023-04-08T10:00:50.374Z,17.95
2023-04-08T10:03:17.047Z,17.94
2023-04-08T10:05:43.525Z,17.95
2023-04-08T10:08:10.085Z,17.95
2023-04-08T10:10:36.299Z,17.95
2023-04-08T10:13:02.529Z,17.97
2023-04-08T10:15:28.965Z,18.00
2023-04-08T10:17:55.439Z,18.03
2023-04-08T10:20:21.783Z,18.04
2023-04-08T10:22:48.200Z,18.03
2023-04-08T10:25:14.710Z,18.04
2023-04-08T10:27:41.213Z,18.03
2023-04-08T10:30:08.928Z,18.02
2023-04-08T10:32:35.382Z,18.03
2023-04-08T10:35:03.861Z,18.04
2023-04-08T10:37:30.414Z,18.05
2023-04-08T10:39:57.084Z,18.06
2023-04-08T10:42:23.529Z,18.08
2023-04-08T10:44:50.008Z,18.07
2023-04-08T10:47:16.436Z,18.08
2023-04-08T10:49:47.226Z,18.08
2023-04-08T10:52:13.774Z,18.09
2023-04-08T10:54:40.192Z,18.11
2023-04-08T10:57:06.720Z,18.16
2023-04-08T10:59:33.258Z,18.20
2023-04-08T11:02:00.029Z,18.24
2023-04-08T11:04:26.761Z,18.27
2023-04-08T11:06:54.513Z,18.30
2023-04-08T11:09:23.462Z,18.33
2023-04-08T11:11:49.896Z,18.33
2023-04-08T11:14:16.577Z,18.33
2023-04-08T11:16:43.137Z,18.35
2023-04-08T11:19:10.812Z,18.35
2023-04-08T11:21:38.743Z,18.36
2023-04-08T11:24:06.514Z,18.37
2023-04-08T11:26:33.028Z,18.37
2023-04-08T11:28:59.691Z,18.40
2023-04-08T11:31:26.272Z,18.42
2023-04-08T11:33:54.642Z,18.44
2023-04-08T11:36:21.034Z,18.48
2023-04-08T11:38:47.396Z,18.47
2023-04-08T11:41:13.819Z,18.46
2023-04-08T11:43:43.274Z,18.47
2023-04-08T11:46:09.934Z,18.46
2023-04-08T11:48:38.686Z,18.45
2023-04-08T11:51:05.239Z,18.45
2023-04-08T11:53:32.622Z,18.37
2023-04-08T11:55:59.066Z,18.44
2023-04-08T11:58:28.390Z,18.45
2023-04-08T12:00:54.968Z,18.47
2023-04-08T12:03:21.562Z,18.51
2023-04-08T12:05:49.432Z,18.57
2023-04-08T12:08:15.834Z,18.61
2023-04-08T12:10:42.350Z,18.63
2023-04-08T12:13:08.631Z,18.65
2023-04-08T12:15:35.142Z,18.65
2023-04-08T12:18:04.683Z,18.65
2023-04-08T12:20:33.187Z,18.66
2023-04-08T12:22:59.964Z,18.67
2023-04-08T12:25:29.072Z,18.72
2023-04-08T12:27:55.907Z,18.73
2023-04-08T12:30:23.455Z,18.74
2023-04-08T12:32:51.298Z,18.75
2023-04-08T12:35:19.265Z,18.76
2023-04-08T12:37:47.184Z,18.81
2023-04-08T12:40:14.053Z,18.81
2023-04-08T12:42:40.793Z,18.81
2023-04-08T12:45:07.241Z,18.80
2023-04-08T12:47:33.702Z,18.78
2023-04-08T12:50:00.067Z,18.77
2023-04-08T12:52:26.543Z,18.75
2023-04-08T12:54:52.933Z,18.75
2023-04-08T12:57:19.431Z,18.76
2023-04-08T12:59:45.817Z,18.77
2023-04-08T13:02:12.246Z,18.77
2023-04-08T13:04:38.681Z,18.79
2023-04-08T13:07:06.285Z,18.82
2023-04-08T13:09:32.658Z,18.85
2023-04-08T13:11:59.123Z,18.87
2023-04-08T13:14:25.693Z,18.89
2023-04-08T13:16:52.354Z,18.89
2023-04-08T13:19:18.818Z,18.91
2023-04-08T13:21:46.244Z,18.96
2023-04-08T13:24:12.777Z,18.96
2023-04-08T13:26:39.250Z,18.98
2023-04-08T13:29:09.504Z,19.00
2023-04-08T13:31:36.401Z,19.00
2023-04-08T13:34:03.358Z,18.99
2023-04-08T13:36:29.777Z,19.01
2023-04-08T13:38:56.576Z,19.04
2023-04-08T13:41:23.131Z,19.06
2023-04-08T13:43:49.542Z,19.05
2023-04-08T13:46:17.110Z,19.06
2023-04-08T13:48:43.439Z,19.05
2023-04-08T13:51:10.024Z,19.07
2023-04-08T13:53:38.445Z,19.09
2023-04-08T13:56:06.164Z,19.12
2023-04-08T13:58:34.099Z,19.15
2023-04-08T14:01:00.547Z,19.18
2023-04-08T14:03:27.244Z,19.23
2023-04-08T14:05:53.658Z,19.27
2023-04-08T14:08:21.844Z,19.29
2023-04-08T14:10:48.293Z,19.33
2023-04-08T14:13:14.717Z,19.33
2023-04-08T14:15:41.356Z,19.32
2023-04-08T14:18:10.534Z,19.35
2023-04-08T14:20:37.810Z,19.33
2023-04-08T14:23:04.249Z,19.37
2023-04-08T14:25:32.480Z,19.40
2023-04-08T14:27:59.134Z,19.40
2023-04-08T14:30:25.407Z,19.38
2023-04-08T14:32:51.773Z,19.38
2023-04-08T14:35:18.021Z,19.38
2023-04-08T14:37:44.262Z,19.38
2023-04-08T14:40:10.729Z,19.39
2023-04-08T14:42:37.006Z,19.40
2023-04-08T14:45:03.224Z,19.39
2023-04-08T14:47:29.429Z,19.39
2023-04-08T14:49:55.880Z,19.39
2023-04-08T14:52:22.457Z,19.39
2023-04-08T14:54:48.700Z,19.39
2023-04-08T14:57:15.241Z,19.40
2023-04-08T14:59:41.576Z,19.39
2023-04-08T15:02:08.627Z,19.38
2023-04-08T15:04:35.137Z,19.38
2023-04-08T15:07:01.422Z,19.37
2023-04-08T15:09:29.048Z,19.36
2023-04-08T15:11:55.241Z,19.34
2023-04-08T15:14:21.437Z,19.33
2023-04-08T15:16:48.027Z,19.32
2023-04-08T15:19:14.511Z,19.32
2023-04-08T15:21:40.742Z,19.32
2023-04-08T15:24:06.944Z,19.31
2023-04-08T15:26:33.253Z,19.31
2023-04-08T15:28:59.520Z,19.32
2023-04-08T15:31:25.878Z,19.33
2023-04-08T15:33:52.771Z,19.32
2023-04-08T15:36:19.889Z,19.32
2023-04-08T15:38:46.449Z,19.32
2023-04-08T15:41:21.486Z,19.32
2023-04-08T15:43:47.905Z,19.31
2023-04-08T15:46:14.398Z,19.32
2023-04-08T15:48:41.264Z,19.31
2023-04-08T15:51:07.777Z,19.29
2023-04-08T15:53:34.344Z,19.30
2023-04-08T15:56:00.862Z,19.28
2023-04-08T15:58:27.260Z,19.27
2023-04-08T16:00:53.839Z,19.25
2023-04-08T16:03:23.604Z,19.23
2023-04-08T16:05:50.047Z,19.22
2023-04-08T16:08:16.415Z,19.22
2023-04-08T16:10:44.025Z,19.21
2023-04-08T16:13:13.053Z,19.20
2023-04-08T16:15:39.436Z,19.18
2023-04-08T16:18:05.837Z,19.17
2023-04-08T16:20:32.536Z,19.16
2023-04-08T16:23:00.478Z,19.15
2023-04-08T16:25:28.337Z,19.13
2023-04-08T16:27:55.086Z,19.13
2023-04-08T16:30:21.561Z,19.11
2023-04-08T16:32:48.129Z,19.08
2023-04-08T16:35:14.728Z,19.08
2023-04-08T16:37:41.524Z,19.06
2023-04-08T16:40:08.115Z,19.04
2023-04-08T16:42:37.641Z,19.04
2023-04-08T16:45:08.373Z,19.01
2023-04-08T16:47:34.831Z,18.99
2023-04-08T16:50:01.355Z,18.98
2023-04-08T16:52:27.756Z,18.96
2023-04-08T16:54:54.091Z,18.94
2023-04-08T16:57:21.464Z,18.92
2023-04-08T16:59:49.970Z,18.90
2023-04-08T17:02:16.998Z,18.90
2023-04-08T17:04:43.564Z,18.88
2023-04-08T17:07:10.126Z,18.86
2023-04-08T17:09:37.098Z,18.85
2023-04-08T17:12:03.902Z,18.82
2023-04-08T17:14:30.395Z,18.81
2023-04-08T17:16:57.099Z,18.81
2023-04-08T17:19:23.829Z,18.78
2023-04-08T17:21:52.861Z,18.77
2023-04-08T17:24:19.337Z,18.77
2023-04-08T17:26:47.352Z,18.75
2023-04-08T17:29:13.753Z,18.74
2023-04-08T17:31:40.521Z,18.72
2023-04-08T17:34:06.861Z,18.71
2023-04-08T17:36:33.477Z,18.69
2023-04-08T17:38:59.823Z,18.68
2023-04-08T17:41:39.004Z,18.67
2023-04-08T17:44:09.140Z,18.65
2023-04-08T17:46:36.185Z,18.64
2023-04-08T17:49:02.612Z,18.63
2023-04-08T17:51:29.118Z,18.62
2023-04-08T17:53:55.495Z,18.61
2023-04-08T17:56:21.715Z,18.60
2023-04-08T17:58:47.900Z,18.59
2023-04-08T18:01:14.130Z,18.58
2023-04-08T18:03:40.462Z,18.56
2023-04-08T18:06:06.805Z,18.55
2023-04-08T18:08:33.064Z,18.53
2023-04-08T18:10:59.481Z,18.53
2023-04-08T18:13:25.718Z,18.51
2023-04-08T18:15:52.017Z,18.50
2023-04-08T18:18:18.343Z,18.49
2023-04-08T18:20:44.739Z,18.48
2023-04-08T18:23:12.324Z,18.47
2023-04-08T18:25:38.700Z,18.45
2023-04-08T18:28:05.212Z,18.45
2023-04-08T18:30:31.514Z,18.44
2023-04-08T18:32:58.169Z,18.43
2023-04-08T18:35:24.542Z,18.42
2023-04-08T18:37:50.884Z,18.42
2023-04-08T18:40:19.267Z,18.40
2023-04-08T18:42:46.523Z,18.39
2023-04-08T18:45:15.095Z,18.39
2023-04-08T18:47:41.544Z,18.37
2023-04-08T18:50:08.031Z,18.36
2023-04-08T18:52:34.494Z,18.36
2023-04-08T18:55:00.986Z,18.36
2023-04-08T18:57:27.421Z,18.34
2023-04-08T18:59:53.979Z,18.33
2023-04-08T19:02:20.317Z,18.31
2023-04-08T19:04:46.973Z,18.31
2023-04-08T19:07:13.233Z,18.29
2023-04-08T19:09:39.480Z,18.30
2023-04-08T19:12:05.698Z,18.28
2023-04-08T19:14:32.013Z,18.28
2023-04-08T19:16:58.328Z,18.26
2023-04-08T19:19:24.738Z,18.27
2023-04-08T19:21:51.360Z,18.27
2023-04-08T19:24:17.774Z,18.25
2023-04-08T19:26:44.159Z,18.25
2023-04-08T19:29:10.856Z,18.23
2023-04-08T19:31:37.404Z,18.23
2023-04-08T19:34:04.076Z,18.22
2023-04-08T19:36:30.407Z,18.21
2023-04-08T19:38:56.721Z,18.20
2023-04-08T19:41:24.712Z,18.20
2023-04-08T19:43:51.702Z,18.20
2023-04-08T19:46:19.630Z,18.18
2023-04-08T19:48:46.025Z,18.17
2023-04-08T19:51:12.425Z,18.17
2023-04-08T19:53:38.943Z,18.16
2023-04-08T19:56:05.542Z,18.14
2023-04-08T19:58:31.940Z,18.14
2023-04-08T20:00:58.439Z,18.14
2023-04-08T20:03:24.905Z,18.13
2023-04-08T20:05:52.077Z,18.12
2023-04-08T20:08:18.523Z,18.12
2023-04-08T20:10:45.345Z,18.11
2023-04-08T20:13:11.671Z,18.10
2023-04-08T20:15:39.510Z,18.09
2023-04-08T20:18:06.008Z,18.09
2023-04-08T20:20:32.505Z,18.07
2023-04-08T20:22:58.879Z,18.08
2023-04-08T20:25:25.313Z,18.06
2023-04-08T20:27:54.744Z,18.05
2023-04-08T20:30:21.056Z,18.04
2023-04-08T20:32:49.862Z,18.04
2023-04-08T20:35:16.367Z,18.02
2023-04-08T20:37:42.770Z,18.02
2023-04-08T20:40:09.380Z,18.01
2023-04-08T20:42:35.841Z,17.98
2023-04-08T20:45:02.272Z,17.97
2023-04-08T20:47:28.886Z,17.96
2023-04-08T20:49:55.306Z,17.96
2023-04-08T20:52:21.843Z,17.94
2023-04-08T20:54:48.321Z,17.93
2023-04-08T20:57:14.673Z,17.92
2023-04-08T20:59:41.106Z,17.91
2023-04-08T21:02:07.742Z,17.89
2023-04-08T21:04:34.179Z,17.89
2023-04-08T21:07:00.541Z,17.87
2023-04-08T21:09:26.986Z,17.86
2023-04-08T21:11:53.668Z,17.84
2023-04-08T21:14:21.422Z,17.83
2023-04-08T21:16:47.881Z,17.82
2023-04-08T21:19:14.332Z,17.81
2023-04-08T21:21:40.749Z,17.80
2023-04-08T21:24:11.441Z,17.78
2023-04-08T21:26:37.991Z,17.77
2023-04-08T21:29:06.495Z,17.75
2023-04-08T21:31:33.030Z,17.74
2023-04-08T21:33:59.683Z,17.73
2023-04-08T21:36:26.284Z,17.71
2023-04-08T21:38:53.329Z,17.70
2023-04-08T21:41:20.087Z,17.69
2023-04-08T21:43:46.471Z,17.68
2023-04-08T21:46:12.851Z,17.66
2023-04-08T21:48:39.446Z,17.65
2023-04-08T21:51:05.959Z,17.64
2023-04-08T21:53:32.336Z,17.63
2023-04-08T21:55:58.756Z,17.62
2023-04-08T21:58:28.028Z,17.62
2023-04-08T22:00:54.459Z,17.59
2023-04-08T22:03:21.254Z,17.60
2023-04-08T22:05:49.825Z,17.57
2023-04-08T22:08:16.462Z,17.56
2023-04-08T22:10:42.830Z,17.55
2023-04-08T22:13:09.216Z,17.53
2023-04-08T22:15:35.736Z,17.51
2023-04-08T22:18:02.090Z,17.51
2023-04-08T22:20:29.822Z,17.50
2023-04-08T22:22:56.242Z,17.48
2023-04-08T22:25:22.603Z,17.47
2023-04-08T22:27:49.001Z,17.47
2023-04-08T22:30:15.770Z,17.46
2023-04-08T22:32:42.651Z,17.45
2023-04-08T22:35:09.213Z,17.45
2023-04-08T22:37:38.472Z,17.43
2023-04-08T22:40:04.954Z,17.42
2023-04-08T22:42:31.406Z,17.41
2023-04-08T22:44:57.912Z,17.41
2023-04-08T22:47:24.561Z,17.39
2023-04-08T22:49:51.199Z,17.38
2023-04-08T22:52:17.856Z,17.38
2023-04-08T22:54:44.357Z,17.37
2023-04-08T22:57:10.760Z,17.36
2023-04-08T22:59:39.125Z,17.36
2023-04-08T23:02:05.895Z,17.35
2023-04-08T23:04:32.492Z,17.33
2023-04-08T23:06:59.016Z,17.33
2023-04-08T23:09:25.562Z,17.33
2023-04-08T23:11:52.202Z,17.32
2023-04-08T23:14:18.720Z,17.31
2023-04-08T23:16:45.049Z,17.31
2023-04-08T23:19:11.611Z,17.30
2023-04-08T23:21:40.402Z,17.29
2023-04-08T23:24:08.994Z,17.28
2023-04-08T23:26:36.734Z,17.27
2023-04-08T23:29:03.128Z,17.27
2023-04-08T23:31:29.829Z,17.27
2023-04-08T23:33:56.179Z,17.25
2023-04-08T23:36:22.576Z,17.24
2023-04-08T23:38:49.025Z,17.24
2023-04-08T23:41:15.398Z,17.21
2023-04-08T23:43:41.978Z,17.20
2023-04-08T23:46:08.550Z,17.19
2023-04-08T23:48:34.925Z,17.19
2023-04-08T23:51:01.261Z,17.18
2023-04-08T23:53:29.616Z,17.18
2023-04-08T23:55:55.933Z,17.16
2023-04-08T23:58:25.519Z,17.15
